Time;durP1;ratioP1;P1;durP2;ratioP2;P2;SDS_P1;SDS_P2;PMS_P1;PMS_P2;Temp;Humidity;BMP_temperature;BMP_pressure;BME280_temperature;BME280_humidity;BME280_pressure;Samples;Min_cycle;Max_cycle;Signal;HPM_P1;HPM_P2
2021/04/14 00:49:11;405497.00;1.35;699.26;93007.00;0.31;161.50;;;;;10.40;1.00;;;;;;2278447;61;1894;-84
2021/04/14 00:54:11;809020.00;2.70;1396.86;166836.00;0.56;288.82;;;;;10.10;1.00;;;;;;2275029;61;1404;-88
2021/04/14 00:56:38;755660.00;2.52;1303.90;88354.00;0.29;153.47;;;;;10.60;1.00;;;;;;2260814;61;809;-90
2021/04/14 01:08:59;435955.00;1.45;751.63;0.00;0.00;0.62;;;;;12.10;1.00;;;;;;2270716;61;1944;-88
2021/04/14 01:36:13;370875.00;1.24;639.74;0.00;0.00;0.62;;;;;11.20;1.00;;;;;;2274525;61;1162;-86
2021/04/14 02:08:23;253939.00;0.85;438.73;0.00;0.00;0.62;;;;;10.00;1.00;;;;;;2266229;61;1958;-86
2021/04/14 02:15:51;123875.00;0.41;214.77;0.00;0.00;0.62;;;;;10.40;1.00;;;;;;2278437;61;1413;-85
2021/04/14 02:50:51;62647.00;0.21;109.05;0.00;0.00;0.62;;;;;10.80;1.00;;;;;;2505815;40;3915;31
2021/04/14 03:03:15;156474.00;0.52;270.96;25143.00;0.08;44.18;;;;;11.20;1.00;;;;;;2269447;61;1404;-86
2021/04/14 03:10:44;92064.00;0.31;159.87;0.00;0.00;0.62;;;;;8.90;1.00;;;;;;2503301;40;3473;31
2021/04/14 04:30:11;73139.00;0.24;127.18;0.00;0.00;0.62;;;;;11.50;1.00;;;;;;2506788;40;3453;31
2021/04/14 05:02:32;414115.00;1.38;714.07;93538.00;0.31;162.42;;;;;9.00;1.00;;;;;;2275151;61;1380;-86
2021/04/14 05:22:30;460592.00;1.54;794.00;90599.00;0.30;157.34;;;;;9.00;1.00;;;;;;2500897;40;3016;31
2021/04/14 06:24:44;752525.00;2.51;1298.45;72997.00;0.24;126.94;;;;;16.20;1.00;;;;;;2274031;61;1255;-88
2021/04/14 06:27:15;119537368.00;398.46;69192784.00;88807.00;0.30;154.25;;;;;16.70;1.00;;;;;;2267475;61;972;-87
2021/04/14 06:29:41;708164.00;2.36;1221.40;66775.00;0.22;116.19;;;;;16.80;1.00;;;;;;2267484;61;1928;-88
2021/04/14 06:32:08;368957.00;1.23;636.44;88485.00;0.29;153.69;;;;;17.20;1.00;;;;;;2267632;61;1045;-89
2021/04/14 06:34:34;537142.00;1.79;925.80;85255.00;0.28;148.11;;;;;16.50;1.00;;;;;;2267586;61;1038;-87
2021/04/14 06:37:01;491112.00;1.64;846.52;60547.00;0.20;105.42;;;;;16.80;1.00;;;;;;2267668;61;1017;-88
2021/04/14 06:39:31;343901.00;1.15;593.38;79704.00;0.27;138.53;;;;;15.90;1.00;;;;;;2267667;61;1010;-89
2021/04/14 06:42:18;609500.00;2.03;1050.63;82892.00;0.28;144.03;;;;;14.90;1.00;;;;;;2267639;61;1334;-88
2021/04/14 06:45:05;390235.00;1.30;673.02;82815.00;0.28;143.90;;;;;15.10;1.00;;;;;;2269100;61;1198;-89
2021/04/14 06:48:00;520356.00;1.73;896.88;75293.00;0.25;130.91;;;;;16.00;1.00;;;;;;2272103;61;1103;-89
2021/04/14 06:50:30;473695.00;1.58;816.55;0.00;0.00;0.62;;;;;18.00;1.00;;;;;;2272028;61;1994;-88
2021/04/14 06:53:07;463659.00;1.55;799.28;82412.00;0.27;143.20;;;;;18.60;1.00;;;;;;2264883;61;1023;-88
2021/04/14 06:55:40;310365.00;1.03;535.74;0.00;0.00;0.62;;;;;17.20;1.00;;;;;;2271954;61;1022;-88
2021/04/14 06:58:11;639614.00;2.13;1102.67;0.00;0.00;0.62;;;;;16.50;1.00;;;;;;2271978;61;1593;-88
2021/04/14 07:00:42;351868.00;1.17;607.07;0.00;0.00;0.62;;;;;16.80;1.00;;;;;;2271901;61;1458;-89
2021/04/14 07:03:11;377444.00;1.26;651.03;0.00;0.00;0.62;;;;;16.40;1.00;;;;;;2271885;61;1068;-89
2021/04/14 07:05:41;385956.00;1.29;665.66;0.00;0.00;0.62;;;;;16.40;1.00;;;;;;2271892;61;1058;-88
2021/04/14 07:08:19;641260.00;2.14;1105.52;61069.00;0.20;106.32;;;;;16.30;1.00;;;;;;2271893;61;1726;-88
2021/04/14 07:10:46;508921.00;1.70;877.18;0.00;0.00;0.62;;;;;17.00;1.00;;;;;;2271834;61;1926;-90
2021/04/14 07:13:14;516543.00;1.72;890.31;0.00;0.00;0.62;;;;;17.50;1.00;;;;;;2261432;61;973;-89
2021/04/14 07:15:41;489361.00;1.63;843.51;0.00;0.00;0.62;;;;;18.40;1.00;;;;;;2263273;61;943;-89
2021/04/14 07:18:26;434062.00;1.45;748.37;93619.00;0.31;162.56;;;;;17.80;1.00;;;;;;2263305;61;938;-88
2021/04/14 07:21:01;413827.00;1.38;713.58;0.00;0.00;0.62;;;;;18.10;1.00;;;;;;2263283;61;1325;-88
2021/04/14 07:23:42;581248.00;1.94;1001.85;0.00;0.00;0.62;;;;;18.00;1.00;;;;;;2263200;61;1004;-90
2021/04/14 07:26:16;343826.00;1.15;593.25;0.00;0.00;0.62;;;;;19.30;1.00;;;;;;2263287;61;1031;-90
2021/04/14 07:28:56;414405.00;1.38;714.57;0.00;0.00;0.62;;;;;18.40;1.00;;;;;;2259161;61;2006;-89
2021/04/14 07:31:30;564468.00;1.88;972.91;0.00;0.00;0.62;;;;;19.00;1.00;;;;;;2259089;61;1411;-88
2021/04/14 07:34:12;124857992.00;416.19;78859072.00;81361.00;0.27;141.39;;;;;19.40;1.00;;;;;;2264102;61;1057;-89
2021/04/14 07:36:48;430665.00;1.44;742.53;70092.00;0.23;121.92;;;;;18.10;1.00;;;;;;2267541;61;1773;-88
2021/04/14 07:39:21;350187.00;1.17;604.18;80562.00;0.27;140.01;;;;;17.90;1.00;;;;;;2267985;61;1121;-89
2021/04/14 07:41:58;354948.00;1.18;612.37;81316.00;0.27;141.31;;;;;18.30;1.00;;;;;;2267914;61;1517;-89
2021/04/14 07:44:32;482270.00;1.61;831.30;91325.00;0.30;158.60;;;;;18.30;1.00;;;;;;2267724;61;1742;-88
2021/04/14 07:46:59;302446.00;1.01;522.12;75244.00;0.25;130.82;;;;;18.50;1.00;;;;;;2270652;61;1018;-88
2021/04/14 07:49:31;201875.00;0.67;349.15;0.00;0.00;0.62;;;;;17.90;1.00;;;;;;2272427;61;1919;-89
2021/04/14 07:51:58;245155.00;0.82;423.62;0.00;0.00;0.62;;;;;17.60;1.00;;;;;;2272489;61;1437;-89
2021/04/14 07:54:26;113345.00;0.38;196.60;0.00;0.00;0.62;;;;;17.90;1.00;;;;;;2272425;61;921;-89
2021/04/14 07:56:56;147308.00;0.49;255.17;0.00;0.00;0.62;;;;;18.30;1.00;;;;;;2272425;61;1722;-89
2021/04/14 07:59:30;226980.00;0.76;392.35;0.00;0.00;0.62;;;;;18.70;1.00;;;;;;2272385;61;1285;-87
2021/04/14 08:01:59;167157.00;0.56;289.37;0.00;0.00;0.62;;;;;18.60;1.00;;;;;;2272347;61;1311;-88
2021/04/14 08:04:30;143311.00;0.48;248.28;0.00;0.00;0.62;;;;;17.60;1.00;;;;;;2272482;61;1111;-88
2021/04/14 08:07:11;155636.00;0.52;269.52;0.00;0.00;0.62;;;;;17.20;1.00;;;;;;2272514;61;1099;-89
2021/04/14 08:09:52;339557.00;1.13;585.91;1182.00;0.00;2.67;;;;;17.30;1.00;;;;;;2272370;61;1986;-89
2021/04/14 08:12:27;431676.00;1.44;744.27;80338.00;0.27;139.62;;;;;17.70;1.00;;;;;;2272440;61;933;-91
2021/04/14 08:15:17;206888.00;0.69;357.78;0.00;0.00;0.62;;;;;18.20;1.00;;;;;;2272362;61;1099;-89
2021/04/14 08:17:45;374075.00;1.25;645.24;86263.00;0.29;149.85;;;;;17.30;1.00;;;;;;2272454;61;1039;-89
2021/04/14 08:20:27;410610.00;1.37;708.05;89583.00;0.30;155.59;;;;;16.90;1.00;;;;;;2272347;61;1620;-89
2021/04/14 08:23:05;404663.00;1.35;697.82;89765.00;0.30;155.90;;;;;16.60;1.00;;;;;;2272439;61;1002;-89
2021/04/14 08:25:33;478001.00;1.59;823.96;91899.00;0.31;159.59;;;;;16.20;1.00;;;;;;2272508;61;1015;-89
2021/04/14 08:28:01;289644.00;0.97;500.12;76485.00;0.25;132.97;;;;;16.80;1.00;;;;;;2272454;61;1107;-88
2021/04/14 08:30:29;520967.00;1.74;897.93;126333.00;0.42;219.01;;;;;16.70;1.00;;;;;;2272327;61;1916;-89
2021/04/14 08:33:03;271080.00;0.90;468.20;86367.00;0.29;150.03;;;;;17.40;1.00;;;;;;2272517;61;1149;-88
2021/04/14 08:35:33;258125.00;0.86;445.92;0.00;0.00;0.62;;;;;16.70;1.00;;;;;;2272320;61;1087;-88
2021/04/14 08:38:02;151773.00;0.51;262.86;0.00;0.00;0.62;;;;;16.50;1.00;;;;;;2272445;61;1027;-89
2021/04/14 08:40:30;154490.00;0.51;267.55;0.00;0.00;0.62;;;;;16.80;1.00;;;;;;2272351;61;1296;-89
2021/04/14 08:43:07;260339.00;0.87;449.73;0.00;0.00;0.62;;;;;16.60;1.00;;;;;;2272284;61;1982;-89
2021/04/14 08:45:37;238439.00;0.79;412.07;0.00;0.00;0.62;;;;;15.40;1.00;;;;;;2272470;61;1158;-89
2021/04/14 08:48:11;240563.00;0.80;415.72;0.00;0.00;0.62;;;;;14.20;1.00;;;;;;2272221;61;1740;-91
2021/04/14 08:50:43;386263.00;1.29;666.19;0.00;0.00;0.62;;;;;13.90;1.00;;;;;;2272206;61;1986;-88
2021/04/14 08:53:16;230579.00;0.77;398.54;0.00;0.00;0.62;;;;;14.00;1.00;;;;;;2272279;61;1055;-89
2021/04/14 08:55:43;295547.00;0.99;510.27;0.00;0.00;0.62;;;;;13.90;1.00;;;;;;2272425;61;922;-90
2021/04/14 08:58:15;369033.00;1.23;636.57;0.00;0.00;0.62;;;;;14.00;1.00;;;;;;2272325;61;1015;-90
2021/04/14 09:00:43;203890.00;0.68;352.62;0.00;0.00;0.62;;;;;13.50;1.00;;;;;;2272261;61;1351;-89
2021/04/14 09:03:14;257585.00;0.86;445.00;0.00;0.00;0.62;;;;;12.90;1.00;;;;;;2272401;61;922;-90
2021/04/14 09:05:44;349999.00;1.17;603.86;0.00;0.00;0.62;;;;;12.50;1.00;;;;;;2272302;61;1255;-88
2021/04/14 09:08:17;438173.00;1.46;755.44;5762.00;0.02;10.61;;;;;12.50;1.00;;;;;;2272369;61;930;-89
2021/04/14 09:10:51;448955.00;1.50;773.98;0.00;0.00;0.62;;;;;11.90;1.00;;;;;;2272174;61;1924;-88
2021/04/14 09:13:29;295411.00;0.98;510.03;0.00;0.00;0.62;;;;;11.60;1.00;;;;;;2272276;61;1703;-90
2021/04/14 09:16:00;329448.00;1.10;568.54;0.00;0.00;0.62;;;;;11.40;1.00;;;;;;2272349;61;1002;-88
2021/04/14 09:18:30;608790.00;2.03;1049.40;34101.00;0.11;59.68;;;;;10.80;1.00;;;;;;2272322;61;1134;-90
2021/04/14 09:21:09;582772.00;1.94;1004.48;0.00;0.00;0.62;;;;;10.40;1.00;;;;;;2272231;61;1708;-89
2021/04/14 09:23:38;408672.00;1.36;704.71;0.00;0.00;0.62;;;;;10.90;1.00;;;;;;2272201;61;1039;-88
2021/04/14 09:26:18;659634.00;2.20;1137.31;67735.00;0.23;117.85;;;;;11.20;1.00;;;;;;2272305;61;1509;-88
2021/04/14 09:28:48;687841.00;2.29;1186.16;18329.00;0.06;32.38;;;;;10.70;1.00;;;;;;2272255;61;1646;-88
2021/04/14 09:31:39;694887.00;2.32;1198.37;0.00;0.00;0.62;;;;;10.30;1.00;;;;;;2272089;61;1593;-90
2021/04/14 09:34:16;652888.00;2.18;1125.63;0.00;0.00;0.62;;;;;10.80;1.00;;;;;;2272138;61;1597;-89
2021/04/14 09:36:47;732363.00;2.44;1263.41;0.00;0.00;0.62;;;;;10.90;1.00;;;;;;2272228;61;1583;-90
2021/04/14 09:39:28;466696.00;1.56;804.50;47439.00;0.16;82.76;;;;;11.20;1.00;;;;;;2272304;61;1126;-89
2021/04/14 09:41:55;727273.00;2.42;1254.57;0.00;0.00;0.62;;;;;11.20;1.00;;;;;;2272183;61;1306;-89
2021/04/14 09:44:39;1165154.00;3.88;2027.34;27951.00;0.09;49.04;;;;;10.80;1.00;;;;;;2272266;61;1031;-89
2021/04/14 09:47:42;1182568.00;3.94;2058.73;70850.00;0.24;123.23;;;;;11.10;1.00;;;;;;2272154;61;1247;-87
2021/04/14 09:50:36;550024.00;1.83;948.00;0.00;0.00;0.62;;;;;11.90;1.00;;;;;;2271079;61;1915;-87
2021/04/14 09:53:07;989137.00;3.30;1713.24;28852.00;0.10;50.60;;;;;11.70;1.00;;;;;;2271964;61;984;-89
2021/04/14 09:55:43;1212324.00;4.04;2112.52;28444.00;0.09;49.89;;;;;11.30;1.00;;;;;;2272086;61;1613;-90
2021/04/14 09:58:15;614801.00;2.05;1059.78;54903.00;0.18;95.66;;;;;11.30;1.00;;;;;;2271908;61;1442;-89
2021/04/14 10:00:44;1279996.00;4.27;2235.54;139167.00;0.46;241.13;;;;;11.50;1.00;;;;;;2272211;61;1416;-89
2021/04/14 10:03:19;1353943.00;4.51;2371.17;53252.00;0.18;92.81;;;;;11.40;1.00;;;;;;2272095;61;1004;-89
2021/04/14 10:05:46;1313971.00;4.38;2297.70;105999.00;0.35;183.93;;;;;10.80;1.00;;;;;;2272194;61;998;-88
2021/04/14 10:15:51;1734993.00;5.78;3093.62;146526.00;0.49;253.82;;;;;11.10;1.00;;;;;;2265698;61;1267;-90
2021/04/14 10:18:22;1214842.00;4.05;2117.08;121425.00;0.40;210.54;;;;;11.20;1.00;;;;;;2259595;61;962;-89
2021/04/14 10:20:49;1177949.00;3.93;2050.40;98537.00;0.33;171.05;;;;;11.20;1.00;;;;;;2259683;61;1385;-89
2021/04/14 10:23:22;2171208.00;7.24;3982.00;88180.00;0.29;153.16;;;;;11.10;1.00;;;;;;2259622;61;1594;-89
2021/04/14 10:25:49;1407065.00;4.69;2469.43;218758.00;0.73;378.21;;;;;11.60;1.00;;;;;;2259672;61;944;-90
2021/04/14 10:28:21;969998.00;3.23;1679.41;128891.00;0.43;223.42;;;;;12.20;1.00;;;;;;2259545;61;1012;-88
2021/04/14 10:30:51;698771.00;2.33;1205.11;100510.00;0.34;174.45;;;;;12.20;1.00;;;;;;2256310;61;1924;-88
2021/04/14 10:33:22;631538.00;2.11;1088.71;97993.00;0.33;170.11;;;;;12.10;1.00;;;;;;2255632;61;996;-88
2021/04/14 10:35:50;1054469.00;3.51;1829.19;196204.00;0.65;339.39;;;;;11.90;1.00;;;;;;2255704;61;1151;-89
2021/04/14 10:38:28;989743.00;3.30;1714.31;100167.00;0.33;173.86;;;;;11.40;1.00;;;;;;2255607;61;1092;-90
2021/04/14 10:40:55;669654.00;2.23;1154.65;68156.00;0.23;118.57;;;;;12.10;1.00;;;;;;2255573;61;1530;-89
2021/04/14 10:43:28;789922.00;2.63;1363.55;118744.00;0.40;205.92;;;;;12.10;1.00;;;;;;2255716;61;1586;-90
2021/04/14 10:45:59;962330.00;3.21;1665.87;92116.00;0.31;159.96;;;;;11.60;1.00;;;;;;2255687;61;1656;-92
2021/04/14 11:06:33;1679283.00;5.60;2985.24;95012.00;0.32;164.96;;;;;11.40;1.00;;;;;;2265317;61;1353;-90
2021/04/14 11:09:01;1591396.00;5.30;2816.31;83374.00;0.28;144.87;;;;;11.10;1.00;;;;;;2260371;61;1004;-90
2021/04/14 11:11:28;1127180.00;3.76;1959.10;128121.00;0.43;222.09;;;;;11.00;1.00;;;;;;2264425;61;1280;-89
2021/04/14 11:19:43;1713745.00;5.71;3052.16;193869.00;0.65;335.37;;;;;11.40;1.00;;;;;;2270498;61;1267;-88
2021/04/14 11:22:12;380020.00;1.27;655.46;0.00;0.00;0.62;;;;;11.70;1.00;;;;;;2256050;61;964;-88
2021/04/14 11:24:47;638294.00;2.13;1100.39;0.00;0.00;0.62;;;;;11.10;1.00;;;;;;2255996;61;1158;-88
2021/04/14 11:27:20;574259.00;1.91;989.79;0.00;0.00;0.62;;;;;10.50;1.00;;;;;;2256050;61;1563;-89
2021/04/14 11:29:50;519315.00;1.73;895.09;0.00;0.00;0.62;;;;;10.10;1.00;;;;;;2256213;61;1914;-89
2021/04/14 11:32:21;684905.00;2.28;1181.07;40275.00;0.13;70.36;;;;;10.20;1.00;;;;;;2256165;61;1464;-89
2021/04/14 11:34:59;852991.00;2.84;1473.70;28473.00;0.09;49.94;;;;;9.90;1.00;;;;;;2256036;61;1609;-88
2021/04/14 11:37:41;520834.00;1.74;897.70;0.00;0.00;0.62;;;;;9.50;1.00;;;;;;2256096;61;1445;-89
2021/04/14 11:40:30;349815.00;1.17;603.54;0.00;0.00;0.62;;;;;9.70;1.00;;;;;;2260116;61;1330;-89
2021/04/14 11:42:59;448863.00;1.50;773.83;0.00;0.00;0.62;;;;;9.80;1.00;;;;;;2264673;61;1721;-89
2021/04/14 11:45:27;641100.00;2.14;1105.24;111894.00;0.37;194.10;;;;;10.00;1.00;;;;;;2264720;61;994;-90
2021/04/14 11:50:31;582376.00;1.94;1003.80;0.00;0.00;0.62;;;;;10.30;1.00;;;;;;2265887;61;1905;-91
2021/04/14 11:53:01;582299.00;1.94;1003.67;5038.00;0.02;9.35;;;;;10.10;1.00;;;;;;2264629;61;1124;-91
2021/04/14 11:55:34;708761.00;2.36;1222.43;0.00;0.00;0.62;;;;;9.90;1.00;;;;;;2264596;61;959;-90
2021/04/14 11:58:03;522769.00;1.74;901.03;0.00;0.00;0.62;;;;;10.20;1.00;;;;;;2264543;61;1021;-90
2021/04/14 12:00:39;596892.00;1.99;1028.85;21144.00;0.07;37.25;;;;;10.40;1.00;;;;;;2264486;61;1748;-91
2021/04/14 12:03:25;603936.00;2.01;1041.02;0.00;0.00;0.62;;;;;10.40;1.00;;;;;;2264570;61;1575;-90
2021/04/14 12:11:02;598183.00;1.99;1031.08;0.00;0.00;0.62;;;;;10.10;1.00;;;;;;2262015;61;1891;-90
2021/04/14 12:13:29;362896.00;1.21;626.03;0.00;0.00;0.62;;;;;10.10;1.00;;;;;;2260518;61;1028;-90
2021/04/14 12:15:56;480857.00;1.60;828.87;0.00;0.00;0.62;;;;;9.90;1.00;;;;;;2260568;61;902;-90
2021/04/14 12:18:22;379626.00;1.27;654.78;0.00;0.00;0.62;;;;;10.40;1.00;;;;;;2260486;61;1509;-91
2021/04/14 12:25:51;109760.00;0.37;190.42;0.00;0.00;0.62;;;;;10.90;1.00;;;;;;2266445;61;1400;-89
2021/04/14 12:35:57;44943.00;0.15;78.44;0.00;0.00;0.62;;;;;11.00;1.00;;;;;;2266632;61;1471;-89
2021/04/14 12:43:32;9034.00;0.03;16.28;0.00;0.00;0.62;;;;;11.00;1.00;;;;;;2270504;61;1430;-90
2021/04/14 12:45:58;6116.00;0.02;11.22;0.00;0.00;0.62;;;;;10.80;1.00;;;;;;2268832;61;950;-87
2021/04/14 12:48:27;7722.00;0.03;14.00;0.00;0.00;0.62;;;;;10.80;1.00;;;;;;2268634;61;1315;-89
2021/04/14 12:51:06;0.00;0.00;0.62;0.00;0.00;0.62;;;;;11.20;1.00;;;;;;2268681;61;1907;-88
2021/04/14 12:53:38;47216.00;0.16;82.37;0.00;0.00;0.62;;;;;11.60;1.00;;;;;;2268737;61;1030;-87
2021/04/14 12:56:06;21173.00;0.07;37.30;0.00;0.00;0.62;;;;;11.90;1.00;;;;;;2268634;61;1721;-88
2021/04/14 12:58:37;6365.00;0.02;11.65;0.00;0.00;0.62;;;;;11.70;1.00;;;;;;2268734;61;929;-88
2021/04/14 13:01:04;24083.00;0.08;42.34;0.00;0.00;0.62;;;;;11.60;1.00;;;;;;2268674;61;1357;-87
2021/04/14 13:03:38;11620.00;0.04;20.76;0.00;0.00;0.62;;;;;11.40;1.00;;;;;;2268765;61;1027;-88
2021/04/14 13:06:15;156891.00;0.52;271.68;0.00;0.00;0.62;;;;;11.10;1.00;;;;;;2268658;61;943;-88
2021/04/14 13:08:43;105474.00;0.35;183.02;38051.00;0.13;66.52;;;;;10.40;1.00;;;;;;2268740;61;1103;-88
2021/04/14 13:11:17;76848.00;0.26;133.59;0.00;0.00;0.62;;;;;10.30;1.00;;;;;;2264083;61;2030;-89
2021/04/14 13:18:50;200907.00;0.67;347.48;0.00;0.00;0.62;;;;;10.80;1.00;;;;;;2262059;61;1273;-89
2021/04/14 13:21:29;0.00;0.00;0.62;0.00;0.00;0.62;;;;;10.40;1.00;;;;;;2260679;61;1325;-88
2021/04/14 13:24:16;316010.00;1.05;545.44;80888.00;0.27;140.57;;;;;10.90;1.00;;;;;;2260700;61;1040;-90
2021/04/14 13:26:52;464323.00;1.55;800.42;77942.00;0.26;135.48;;;;;11.10;1.00;;;;;;2240282;61;1002;-87
2021/04/14 13:29:25;127046304.00;423.49;83082672.00;88567.00;0.30;153.83;;;;;10.90;1.00;;;;;;2240252;61;1920;-89
2021/04/14 13:31:58;292765.00;0.98;505.48;92190.00;0.31;160.09;;;;;11.10;1.00;;;;;;2240314;61;1715;-89
2021/04/14 13:37:05;256674.00;0.86;443.43;89752.00;0.30;155.88;;;;;11.10;1.00;;;;;;2266489;61;1415;-89
2021/04/14 13:39:39;318286.00;1.06;549.35;83402.00;0.28;144.91;;;;;10.40;1.00;;;;;;2264589;61;1095;-87
2021/04/14 13:42:11;373574.00;1.25;644.38;90692.00;0.30;157.50;;;;;10.80;1.00;;;;;;2260643;61;970;-87
2021/04/14 13:44:47;310023.00;1.03;535.15;91213.00;0.30;158.40;;;;;11.20;1.00;;;;;;2256915;61;942;-86
2021/04/14 13:47:20;248409.00;0.83;429.21;95889.00;0.32;166.48;;;;;12.00;1.00;;;;;;2260633;61;1024;-88
2021/04/14 13:52:21;684314.00;2.28;1180.05;58690.00;0.20;102.21;;;;;12.40;1.00;;;;;;2270072;61;1399;-88
2021/04/14 13:54:50;362831.00;1.21;625.91;101855.00;0.34;176.77;;;;;12.10;1.00;;;;;;2261444;61;974;-89
2021/04/14 13:59:52;377872.00;1.26;651.77;58707.00;0.20;102.24;;;;;12.60;1.00;;;;;;2266162;61;1418;-88
2021/04/14 14:02:30;355297.00;1.18;612.97;92382.00;0.31;160.42;;;;;11.90;1.00;;;;;;2264427;61;1154;-87
2021/04/14 14:05:00;110290.00;0.37;191.33;0.00;0.00;0.62;;;;;10.90;1.00;;;;;;2264533;61;1245;-88
2021/04/14 14:07:35;215320.00;0.72;372.29;0.00;0.00;0.62;;;;;10.70;1.00;;;;;;2257585;61;972;-87
2021/04/14 14:10:07;251831.00;0.84;435.10;0.00;0.00;0.62;;;;;10.90;1.00;;;;;;2264452;61;1986;-88
2021/04/14 14:15:15;376978.00;1.26;650.23;81971.00;0.27;142.44;;;;;11.60;1.00;;;;;;2266408;61;1344;-89
2021/04/14 14:17:44;447011.00;1.49;770.64;105467.00;0.35;183.01;;;;;11.50;1.00;;;;;;2255947;61;1731;-87
2021/04/14 14:20:14;483742.00;1.61;833.84;132777.00;0.44;230.12;;;;;12.10;1.00;;;;;;2244003;61;1302;-88
2021/04/14 14:22:42;380060.00;1.27;655.53;89449.00;0.30;155.36;;;;;11.60;1.00;;;;;;2240118;62;1054;-90
2021/04/14 14:25:10;278733.00;0.93;481.36;79597.00;0.27;138.34;;;;;11.50;1.00;;;;;;2239812;62;1108;-88
2021/04/14 14:27:36;686494.00;2.29;1183.83;186173.00;0.62;322.12;;;;;10.70;1.00;;;;;;2240094;62;1077;-88
2021/04/14 14:30:04;341695.00;1.14;589.59;83626.00;0.28;145.30;;;;;10.30;1.00;;;;;;2240034;62;1919;-88
2021/04/14 14:32:31;361209.00;1.20;623.13;87088.00;0.29;151.28;;;;;10.40;1.00;;;;;;2240050;62;1059;-89
2021/04/14 14:34:59;303188.00;1.01;523.40;89148.00;0.30;154.84;;;;;10.40;1.00;;;;;;2241478;61;1018;-90
2021/04/14 14:37:31;394728.00;1.32;680.74;90161.00;0.30;156.59;;;;;10.60;1.00;;;;;;2248636;61;1090;-89
2021/04/14 14:40:06;298980.00;1.00;516.17;96672.00;0.32;167.83;;;;;10.50;1.00;;;;;;2252002;61;1415;-88
2021/04/14 14:42:39;420859.00;1.40;725.67;104747.00;0.35;181.77;;;;;10.30;1.00;;;;;;2251875;61;1040;-89
2021/04/14 14:45:12;268964.00;0.90;464.56;0.00;0.00;0.62;;;;;10.10;1.00;;;;;;2251872;61;1042;-89
2021/04/14 14:47:43;294702.00;0.98;508.81;0.00;0.00;0.62;;;;;9.90;1.00;;;;;;2255504;61;1073;-88
2021/04/14 14:50:13;158662.00;0.53;274.73;0.00;0.00;0.62;;;;;10.10;1.00;;;;;;2259773;61;1997;-88
2021/04/14 14:52:41;570700.00;1.90;983.65;183773.00;0.61;317.99;;;;;10.50;1.00;;;;;;2260003;61;1044;-87
2021/04/14 14:55:10;410464.00;1.37;707.79;0.00;0.00;0.62;;;;;10.40;1.00;;;;;;2259921;61;991;-87
2021/04/14 14:57:39;575004.00;1.92;991.08;84280.00;0.28;146.43;;;;;10.40;1.00;;;;;;2259897;61;1051;-88
2021/04/14 15:00:14;539874.00;1.80;930.51;69965.00;0.23;121.70;;;;;10.50;1.00;;;;;;2253180;61;1365;-89
2021/04/14 15:02:41;274830.00;0.92;474.65;0.00;0.00;0.62;;;;;10.50;1.00;;;;;;2259902;61;1128;-86
2021/04/14 15:05:10;377439.00;1.26;651.02;0.00;0.00;0.62;;;;;10.00;1.00;;;;;;2259826;61;1061;-88
2021/04/14 15:07:39;488955.00;1.63;842.81;0.00;0.00;0.62;;;;;9.20;1.00;;;;;;2260944;61;1060;-87
2021/04/14 15:10:07;447351.00;1.49;771.23;0.00;0.00;0.62;;;;;9.60;1.00;;;;;;2264340;61;1973;-88
2021/04/14 15:12:35;362014.00;1.21;624.51;17776.00;0.06;31.42;;;;;9.60;1.00;;;;;;2264099;61;959;-88
2021/04/14 15:15:02;320543.00;1.07;553.23;0.00;0.00;0.62;;;;;9.50;1.00;;;;;;2264349;61;1037;-90
2021/04/14 15:17:29;214359.00;0.71;370.64;0.00;0.00;0.62;;;;;8.90;1.00;;;;;;2263847;61;1121;-89
2021/04/14 15:19:55;441456.00;1.47;761.09;0.00;0.00;0.62;;;;;8.50;1.00;;;;;;2264039;61;1704;-87
2021/04/14 15:22:23;522543.00;1.74;900.65;115461.00;0.38;200.25;;;;;8.40;1.00;;;;;;2260606;61;969;-89
2021/04/14 15:24:51;224483.00;0.75;388.06;0.00;0.00;0.62;;;;;8.60;1.00;;;;;;2264280;61;1048;-86
2021/04/14 15:27:18;409938.00;1.37;706.89;0.00;0.00;0.62;;;;;9.40;1.00;;;;;;2264240;61;1021;-88
2021/04/14 15:29:45;458921.00;1.53;791.13;0.00;0.00;0.62;;;;;8.90;1.00;;;;;;2263771;61;1912;-89
2021/04/14 15:32:12;212111.00;0.71;366.77;0.00;0.00;0.62;;;;;9.20;1.00;;;;;;2264265;61;1254;-88
2021/04/14 15:34:39;519028.00;1.73;894.59;7411.00;0.02;13.46;;;;;9.00;1.00;;;;;;2264285;61;997;-89
2021/04/14 15:37:06;264394.00;0.88;456.70;0.00;0.00;0.62;;;;;8.80;1.00;;;;;;2260626;61;1010;-90
2021/04/14 15:39:35;378330.00;1.26;652.55;0.00;0.00;0.62;;;;;8.40;1.00;;;;;;2264150;61;1674;-88
2021/04/14 15:42:01;338791.00;1.13;584.60;0.00;0.00;0.62;;;;;8.90;1.00;;;;;;2264325;61;1001;-89
2021/04/14 15:44:27;210469.00;0.70;363.94;0.00;0.00;0.62;;;;;9.40;1.00;;;;;;2264088;61;1736;-87
2021/04/14 15:46:55;338749.00;1.13;584.52;0.00;0.00;0.62;;;;;10.00;1.00;;;;;;2264271;61;993;-86
2021/04/14 15:49:22;402668.00;1.34;694.39;0.00;0.00;0.62;;;;;9.60;1.00;;;;;;2264296;61;918;-89
2021/04/14 15:51:49;658420.00;2.19;1135.21;0.00;0.00;0.62;;;;;9.40;1.00;;;;;;2264181;61;2011;-90
2021/04/14 15:54:16;270199.00;0.90;466.69;0.00;0.00;0.62;;;;;9.30;1.00;;;;;;2264144;61;1013;-90
2021/04/14 15:56:43;387865.00;1.29;668.94;0.00;0.00;0.62;;;;;9.10;1.00;;;;;;2264386;61;999;-91
2021/04/14 15:59:12;191128.00;0.64;330.65;0.00;0.00;0.62;;;;;9.20;1.00;;;;;;2264983;61;981;-88
2021/04/14 16:01:42;348986.00;1.16;602.12;0.00;0.00;0.62;;;;;9.40;1.00;;;;;;2264876;61;1439;-88
2021/04/14 16:04:10;279435.00;0.93;482.57;0.00;0.00;0.62;;;;;9.50;1.00;;;;;;2264957;61;989;-89
2021/04/14 16:06:39;439436.00;1.46;757.61;0.00;0.00;0.62;;;;;10.00;1.00;;;;;;2264952;61;924;-88
2021/04/14 16:09:06;428919.00;1.43;739.53;0.00;0.00;0.62;;;;;10.20;1.00;;;;;;2264914;61;1038;-88
2021/04/14 16:11:33;419927.00;1.40;724.06;0.00;0.00;0.62;;;;;10.20;1.00;;;;;;2264806;61;1993;-86
2021/04/14 16:13:59;316732.00;1.06;546.68;0.00;0.00;0.62;;;;;10.30;1.00;;;;;;2264879;61;1064;-88
2021/04/14 16:16:27;348541.00;1.16;601.35;0.00;0.00;0.62;;;;;9.80;1.00;;;;;;2264797;61;1526;-88
2021/04/14 16:18:56;368386.00;1.23;635.46;0.00;0.00;0.62;;;;;9.90;1.00;;;;;;2260123;61;994;-86
2021/04/14 16:21:24;362675.00;1.21;625.65;0.00;0.00;0.62;;;;;9.80;1.00;;;;;;2260336;61;1464;-88
2021/04/14 16:23:51;252982.00;0.84;437.08;0.00;0.00;0.62;;;;;9.80;1.00;;;;;;2252394;61;1005;-86
2021/04/14 16:26:17;420269.00;1.40;724.65;14355.00;0.05;25.49;;;;;10.10;1.00;;;;;;2244359;61;957;-85
2021/04/14 16:31:13;526238.00;1.75;907.01;0.00;0.00;0.62;;;;;10.70;1.00;;;;;;2266736;61;1973;-87
2021/04/14 16:36:09;408708.00;1.36;704.78;0.00;0.00;0.62;;;;;10.60;1.00;;;;;;2266277;61;1410;-87
2021/04/14 16:38:36;167161.00;0.56;289.38;0.00;0.00;0.62;;;;;10.60;1.00;;;;;;2260353;61;933;-88
2021/04/14 16:41:03;289261.00;0.96;499.46;0.00;0.00;0.62;;;;;10.20;1.00;;;;;;2256299;61;1309;-87
2021/04/14 16:43:34;312245.00;1.04;538.97;0.00;0.00;0.62;;;;;10.40;1.00;;;;;;2256423;61;1042;-88
2021/04/14 16:46:01;54367.00;0.18;94.74;0.00;0.00;0.62;;;;;10.50;1.00;;;;;;2256446;61;1014;-88
2021/04/14 16:48:27;188640.00;0.63;326.37;0.00;0.00;0.62;;;;;10.60;1.00;;;;;;2256493;61;1120;-88
2021/04/14 16:50:54;322802.00;1.08;557.11;39877.00;0.13;69.68;;;;;10.70;1.00;;;;;;2249724;61;1915;-88
2021/04/14 16:53:20;216179.00;0.72;373.77;0.00;0.00;0.62;;;;;11.10;1.00;;;;;;2249806;61;1031;-88
2021/04/14 16:55:48;224089.00;0.75;387.38;0.00;0.00;0.62;;;;;11.50;1.00;;;;;;2247078;61;1010;-87
2021/04/14 16:58:14;119920.00;0.40;207.94;0.00;0.00;0.62;;;;;10.90;1.00;;;;;;2261045;61;998;-87
2021/04/14 17:00:41;185753.00;0.62;321.40;0.00;0.00;0.62;;;;;10.70;1.00;;;;;;2260262;61;1403;-87
2021/04/14 17:03:07;267283.00;0.89;461.67;0.00;0.00;0.62;;;;;10.30;1.00;;;;;;2260382;61;1025;-87
2021/04/14 17:05:35;267879.00;0.89;462.70;0.00;0.00;0.62;;;;;10.20;1.00;;;;;;2253770;61;950;-87
2021/04/14 17:08:01;177276.00;0.59;306.80;0.00;0.00;0.62;;;;;10.20;1.00;;;;;;2253716;61;994;-88
2021/04/14 17:10:30;226672.00;0.76;391.82;0.00;0.00;0.62;;;;;10.40;1.00;;;;;;2256893;61;1964;-88